Leni P. — A8XW5 — position and weather

sailwx.info

Track history (hours):
 
Tides and Currents Weather Stations Pressure Air Temp Water Temp Dewpoint Dewpoint Depression Visibility Wind Speed Wind Dir Waves Ship Positions

Leni P.

Last reported at 2017-Jul-11 06:52 UTC. Time now 2017-Jul-23 16:37 UTC.
Position N 30°57' E 032°19'.
Warning: this ship's position is 12 days out of date.

Length 274 m; draft 15.5 m.

Type: Ship. MMSI: 636014986.

Date/timePositionNaut miles runAvg speedWind from/ knotsBaromVisibWave heightAir tempDewpointWater temp
2017-Jul-11 06:52N 30°57' E 032°19'3 8.4
2017-Jul-11 06:30N 30°60' E 032°19'4 8.4
2017-Jul-11 06:00N 31°04' E 032°19'4 8.7
2017-Jul-11 05:30N 31°08' E 032°19'5 9.0
2017-Jul-11 05:00N 31°12' E 032°20'4 7.6
2017-Jul-11 04:30N 31°16' E 032°21'5 9.7
2017-Jul-11 04:00N 31°21' E 032°23'5 9.3
2017-Jul-11 03:30N 31°25' E 032°24'5 5.8
2017-Jul-11 02:39N 31°28' E 032°20'0 0.3
2017-Jul-11 01:48N 31°28' E 032°20'0 0.1
2017-Jul-11 01:15N 31°28' E 032°20'0 0.3
2017-Jul-11 01:00N 31°28' E 032°20'0 0.0
2017-Jul-11 00:30N 31°28' E 032°20'0 0.0
2017-Jul-11 00:01N 31°28' E 032°20'0 0.0
2017-Jul-10 23:30N 31°28' E 032°20'0 0.0
2017-Jul-10 23:00N 31°28' E 032°20'0 0.0
2017-Jul-10 22:30N 31°28' E 032°20'0 0.0
2017-Jul-10 22:00N 31°28' E 032°20'0 0.0
2017-Jul-10 21:30N 31°28' E 032°20'0 0.0
2017-Jul-10 21:00N 31°28' E 032°20'0 0.0
2017-Jul-10 20:30N 31°28' E 032°20'0 0.0
2017-Jul-10 20:00N 31°28' E 032°20'0 0.0
2017-Jul-10 19:30N 31°28' E 032°20'0 0.0
2017-Jul-10 16:13N 31°28' E 032°20'0 0.0
2017-Jul-10 16:00N 31°28' E 032°20'0 0.0
2017-Jul-10 15:30N 31°28' E 032°20'0 0.0
2017-Jul-10 15:01N 31°28' E 032°20'0 0.0
2017-Jul-10 14:31N 31°28' E 032°20'0 0.0
2017-Jul-10 14:00N 31°28' E 032°20'0 0.0
2017-Jul-10 13:22N 31°28' E 032°20'0 0.0
2017-Jul-10 13:00N 31°28' E 032°20'0 0.3
2017-Jul-10 12:30N 31°28' E 032°20'0 0.4
2017-Jul-10 12:00N 31°28' E 032°20'1 0.7
2017-Jul-10 11:12N 31°29' E 032°19'0 0.1
2017-Jul-10 10:54N 31°29' E 032°19'0 0.2
2017-Jul-10 10:24N 31°29' E 032°19'0 0.3
2017-Jul-10 10:00N 31°29' E 032°19'2 4.2
2017-Jul-10 09:31N 31°31' E 032°20'5 9.8
2017-Jul-10 09:01N 31°36' E 032°22'612.1
2017-Jul-10 08:31N 31°39' E 032°28'711.8
2017-Jul-10 07:54N 31°43' E 032°35'512.4
2017-Jul-10 07:31N 31°48' E 032°36'4314.5
2017-Jul-10 04:30N 32°26' E 033°00'713.7
2017-Jul-10 04:00N 32°32' E 033°04'612.7
2017-Jul-10 03:30N 32°38' E 033°07'612.8
2017-Jul-10 03:00N 32°44' E 033°11'612.9
2017-Jul-10 02:30N 32°49' E 033°14'713.0
2017-Jul-10 02:00N 32°55' E 033°17'813.3
2017-Jul-10 01:25N 33°02' E 033°22'613.4
2017-Jul-10 01:00N 33°07' E 033°25'1013.5
2017-Jul-10 00:14N 33°16' E 033°31'1013.4
2017-Jul-09 23:28N 33°25' E 033°36'613.3
2017-Jul-09 23:00N 33°31' E 033°40'713.1
2017-Jul-09 22:30N 33°36' E 033°43'713.0
2017-Jul-09 22:00N 33°42' E 033°47'613.0
2017-Jul-09 21:30N 33°48' E 033°51'612.8
2017-Jul-09 21:00N 33°54' E 033°55'612.6
2017-Jul-09 20:30N 33°59' E 033°58'612.5
2017-Jul-09 20:00N 34°05' E 034°01'612.6
2017-Jul-09 19:30N 34°10' E 034°05'612.5
2017-Jul-09 19:00N 34°16' E 034°08'612.4
2017-Jul-09 18:30N 34°21' E 034°12'612.4
2017-Jul-09 18:00N 34°27' E 034°15'612.3
2017-Jul-09 17:30N 34°32' E 034°19'612.4
2017-Jul-09 17:00N 34°38' E 034°22'612.5
2017-Jul-09 16:30N 34°43' E 034°26'612.5
2017-Jul-09 16:00N 34°49' E 034°29'612.5
2017-Jul-09 15:30N 34°54' E 034°33'612.6
2017-Jul-09 15:00N 35°00' E 034°36'912.7
2017-Jul-09 14:19N 35°08' E 034°41'412.7
2017-Jul-09 14:00N 35°11' E 034°43'613.0
2017-Jul-09 13:30N 35°17' E 034°47'713.1
2017-Jul-09 13:00N 35°23' E 034°51'  
2017-Jul-04 19:03N 36°20' E 035°14'0 0.1
2017-Jul-04 19:00N 36°20' E 035°14'0 0.0
2017-Jul-04 18:30N 36°20' E 035°14'0 0.0
2017-Jul-04 17:57N 36°20' E 035°14'0 0.0
2017-Jul-04 17:30N 36°20' E 035°14'0 0.0
2017-Jul-04 17:00N 36°20' E 035°14'0 0.0
2017-Jul-04 16:27N 36°20' E 035°14'0 0.0
2017-Jul-04 16:00N 36°20' E 035°14'0 0.0
2017-Jul-04 15:30N 36°20' E 035°14'0 0.0
2017-Jul-04 14:54N 36°20' E 035°14'0 0.0
2017-Jul-04 14:00N 36°20' E 035°14'0 0.0
2017-Jul-04 13:30N 36°20' E 035°14'0 0.0
2017-Jul-04 13:00N 36°20' E 035°14'0 0.0
2017-Jul-04 12:30N 36°20' E 035°14'0 0.0
2017-Jul-04 11:57N 36°20' E 035°14'0 0.0
2017-Jul-04 11:30N 36°20' E 035°14'0 0.0
2017-Jul-04 10:51N 36°20' E 035°14'0 0.0
2017-Jul-04 04:24N 36°20' E 035°14'0 0.0
2017-Jul-04 03:51N 36°20' E 035°14'0 0.0
2017-Jul-04 00:15N 36°20' E 035°14'0 0.0
2017-Jul-03 23:57N 36°20' E 035°14'0 0.0
2017-Jul-03 23:30N 36°20' E 035°14'0 0.0
2017-Jul-03 21:15N 36°20' E 035°14'0 0.0
2017-Jul-03 20:57N 36°20' E 035°14'0 0.0
2017-Jul-03 20:30N 36°20' E 035°14'0 0.0
2017-Jul-03 20:00N 36°20' E 035°14'0 0.0
2017-Jul-03 19:30N 36°20' E 035°14'0 0.0
2017-Jul-03 19:00N 36°20' E 035°14'0 0.0
2017-Jul-03 18:30N 36°20' E 035°14'0 0.0
2017-Jul-03 17:15N 36°20' E 035°14'0 0.0
2017-Jul-03 16:51N 36°20' E 035°14'0 0.0
2017-Jul-03 16:27N 36°20' E 035°14'0 0.0
2017-Jul-03 16:00N 36°20' E 035°14'0 0.0
2017-Jul-03 15:30N 36°20' E 035°14'0 0.0
2017-Jul-03 15:00N 36°20' E 035°14'0 0.0
2017-Jul-03 14:00N 36°20' E 035°14'0 0.0
2017-Jul-03 13:27N 36°20' E 035°14'0 0.0
2017-Jul-03 12:57N 36°20' E 035°14'0 0.0
2017-Jul-03 12:03N 36°20' E 035°14'0 0.1
2017-Jul-03 11:33N 36°20' E 035°14'0 0.0
2017-Jul-03 11:30N 36°20' E 035°14'0 0.0
2017-Jul-03 06:51N 36°20' E 035°14'0 0.0
2017-Jul-03 06:30N 36°20' E 035°14'0 0.0
2017-Jul-03 06:00N 36°20' E 035°14'0 0.2
2017-Jul-03 05:27N 36°20' E 035°14'0 0.0
2017-Jul-02 23:24N 36°20' E 035°14'0 0.0
2017-Jul-02 21:27N 36°20' E 035°14'0 0.0
2017-Jul-02 18:57N 36°20' E 035°14'0 0.0
2017-Jul-02 18:30N 36°20' E 035°14'0 0.0
2017-Jul-02 18:00N 36°20' E 035°14'0 0.0
2017-Jul-02 16:48N 36°20' E 035°14'0 0.0
2017-Jul-02 16:30N 36°20' E 035°14'0 0.0
2017-Jul-02 15:51N 36°20' E 035°14'0 0.0
2017-Jul-02 13:18N 36°20' E 035°14'0 0.0
2017-Jul-02 09:45N 36°20' E 035°14'0 0.0
2017-Jul-02 09:30N 36°20' E 035°14'0 0.0
2017-Jul-02 08:51N 36°20' E 035°14'0 0.0
2017-Jul-02 08:30N 36°20' E 035°14'0 0.0
2017-Jul-02 06:42N 36°20' E 035°14'0 0.0
2017-Jul-01 22:48N 36°20' E 035°14'0 0.1
2017-Jul-01 22:24N 36°20' E 035°14'0 0.0
2017-Jul-01 21:51N 36°20' E 035°14'0 0.0
2017-Jul-01 21:30N 36°20' E 035°14'0 0.0
2017-Jul-01 21:00N 36°20' E 035°14'0 0.0
2017-Jul-01 20:30N 36°20' E 035°14'0 0.0
2017-Jul-01 18:00N 36°20' E 035°14'0 0.1
2017-Jul-01 14:54N 36°20' E 035°15'0 0.1
2017-Jul-01 13:03N 36°20' E 035°14'0 0.1
2017-Jul-01 12:54N 36°20' E 035°14'0 0.0
2017-Jul-01 12:27N 36°20' E 035°14'0 0.0
2017-Jul-01 07:54N 36°20' E 035°14'0 0.0
2017-Jul-01 07:30N 36°20' E 035°14'0 0.0
2017-Jul-01 07:00N 36°20' E 035°14'  
Track history (hours):
 
Tides and Currents Weather Stations Pressure Air Temp Water Temp Dewpoint Dewpoint Depression Visibility Wind Speed Wind Dir Waves Ship Positions

Leni P.

Last reported at 2017-Jul-11 06:52 UTC. Time now 2017-Jul-23 16:37 UTC.
Position N 30°57' E 032°19'.
Warning: this ship's position is 12 days out of date.

Length 274 m; draft 15.5 m.

Type: Ship. MMSI: 636014986.

Date/timePositionNaut miles runAvg speedWind from/ knotsBaromVisibWave heightAir tempDewpointWater temp
2017-Jul-11 06:52N 30°57' E 032°19'3 8.4
2017-Jul-11 06:30N 30°60' E 032°19'4 8.4
2017-Jul-11 06:00N 31°04' E 032°19'4 8.7
2017-Jul-11 05:30N 31°08' E 032°19'5 9.0
2017-Jul-11 05:00N 31°12' E 032°20'4 7.6
2017-Jul-11 04:30N 31°16' E 032°21'5 9.7
2017-Jul-11 04:00N 31°21' E 032°23'5 9.3
2017-Jul-11 03:30N 31°25' E 032°24'5 5.8
2017-Jul-11 02:39N 31°28' E 032°20'0 0.3
2017-Jul-11 01:48N 31°28' E 032°20'0 0.1
2017-Jul-11 01:15N 31°28' E 032°20'0 0.3
2017-Jul-11 01:00N 31°28' E 032°20'0 0.0
2017-Jul-11 00:30N 31°28' E 032°20'0 0.0
2017-Jul-11 00:01N 31°28' E 032°20'0 0.0
2017-Jul-10 23:30N 31°28' E 032°20'0 0.0
2017-Jul-10 23:00N 31°28' E 032°20'0 0.0
2017-Jul-10 22:30N 31°28' E 032°20'0 0.0
2017-Jul-10 22:00N 31°28' E 032°20'0 0.0
2017-Jul-10 21:30N 31°28' E 032°20'0 0.0
2017-Jul-10 21:00N 31°28' E 032°20'0 0.0
2017-Jul-10 20:30N 31°28' E 032°20'0 0.0
2017-Jul-10 20:00N 31°28' E 032°20'0 0.0
2017-Jul-10 19:30N 31°28' E 032°20'0 0.0
2017-Jul-10 16:13N 31°28' E 032°20'0 0.0
2017-Jul-10 16:00N 31°28' E 032°20'0 0.0
2017-Jul-10 15:30N 31°28' E 032°20'0 0.0
2017-Jul-10 15:01N 31°28' E 032°20'0 0.0
2017-Jul-10 14:31N 31°28' E 032°20'0 0.0
2017-Jul-10 14:00N 31°28' E 032°20'0 0.0
2017-Jul-10 13:22N 31°28' E 032°20'0 0.0
2017-Jul-10 13:00N 31°28' E 032°20'0 0.3
2017-Jul-10 12:30N 31°28' E 032°20'0 0.4
2017-Jul-10 12:00N 31°28' E 032°20'1 0.7
2017-Jul-10 11:12N 31°29' E 032°19'0 0.1
2017-Jul-10 10:54N 31°29' E 032°19'0 0.2
2017-Jul-10 10:24N 31°29' E 032°19'0 0.3
2017-Jul-10 10:00N 31°29' E 032°19'2 4.2
2017-Jul-10 09:31N 31°31' E 032°20'5 9.8
2017-Jul-10 09:01N 31°36' E 032°22'612.1
2017-Jul-10 08:31N 31°39' E 032°28'711.8
2017-Jul-10 07:54N 31°43' E 032°35'512.4
2017-Jul-10 07:31N 31°48' E 032°36'4314.5
2017-Jul-10 04:30N 32°26' E 033°00'713.7
2017-Jul-10 04:00N 32°32' E 033°04'612.7
2017-Jul-10 03:30N 32°38' E 033°07'612.8
2017-Jul-10 03:00N 32°44' E 033°11'612.9
2017-Jul-10 02:30N 32°49' E 033°14'713.0
2017-Jul-10 02:00N 32°55' E 033°17'813.3
2017-Jul-10 01:25N 33°02' E 033°22'613.4
2017-Jul-10 01:00N 33°07' E 033°25'1013.5
2017-Jul-10 00:14N 33°16' E 033°31'1013.4
2017-Jul-09 23:28N 33°25' E 033°36'613.3
2017-Jul-09 23:00N 33°31' E 033°40'713.1
2017-Jul-09 22:30N 33°36' E 033°43'713.0
2017-Jul-09 22:00N 33°42' E 033°47'613.0
2017-Jul-09 21:30N 33°48' E 033°51'612.8
2017-Jul-09 21:00N 33°54' E 033°55'612.6
2017-Jul-09 20:30N 33°59' E 033°58'612.5
2017-Jul-09 20:00N 34°05' E 034°01'612.6
2017-Jul-09 19:30N 34°10' E 034°05'612.5
2017-Jul-09 19:00N 34°16' E 034°08'612.4
2017-Jul-09 18:30N 34°21' E 034°12'612.4
2017-Jul-09 18:00N 34°27' E 034°15'612.3
2017-Jul-09 17:30N 34°32' E 034°19'612.4
2017-Jul-09 17:00N 34°38' E 034°22'612.5
2017-Jul-09 16:30N 34°43' E 034°26'612.5
2017-Jul-09 16:00N 34°49' E 034°29'612.5
2017-Jul-09 15:30N 34°54' E 034°33'612.6
2017-Jul-09 15:00N 35°00' E 034°36'912.7
2017-Jul-09 14:19N 35°08' E 034°41'412.7
2017-Jul-09 14:00N 35°11' E 034°43'613.0
2017-Jul-09 13:30N 35°17' E 034°47'713.1
2017-Jul-09 13:00N 35°23' E 034°51'  
2017-Jul-04 19:03N 36°20' E 035°14'0 0.1
2017-Jul-04 19:00N 36°20' E 035°14'0 0.0
2017-Jul-04 18:30N 36°20' E 035°14'0 0.0
2017-Jul-04 17:57N 36°20' E 035°14'0 0.0
2017-Jul-04 17:30N 36°20' E 035°14'0 0.0
2017-Jul-04 17:00N 36°20' E 035°14'0 0.0
2017-Jul-04 16:27N 36°20' E 035°14'0 0.0
2017-Jul-04 16:00N 36°20' E 035°14'0 0.0
2017-Jul-04 15:30N 36°20' E 035°14'0 0.0
2017-Jul-04 14:54N 36°20' E 035°14'0 0.0
2017-Jul-04 14:00N 36°20' E 035°14'0 0.0
2017-Jul-04 13:30N 36°20' E 035°14'0 0.0
2017-Jul-04 13:00N 36°20' E 035°14'0 0.0
2017-Jul-04 12:30N 36°20' E 035°14'0 0.0
2017-Jul-04 11:57N 36°20' E 035°14'0 0.0
2017-Jul-04 11:30N 36°20' E 035°14'0 0.0
2017-Jul-04 10:51N 36°20' E 035°14'0 0.0
2017-Jul-04 04:24N 36°20' E 035°14'0 0.0
2017-Jul-04 03:51N 36°20' E 035°14'0 0.0
2017-Jul-04 00:15N 36°20' E 035°14'0 0.0
2017-Jul-03 23:57N 36°20' E 035°14'0 0.0
2017-Jul-03 23:30N 36°20' E 035°14'0 0.0
2017-Jul-03 21:15N 36°20' E 035°14'0 0.0
2017-Jul-03 20:57N 36°20' E 035°14'0 0.0
2017-Jul-03 20:30N 36°20' E 035°14'0 0.0
2017-Jul-03 20:00N 36°20' E 035°14'0 0.0
2017-Jul-03 19:30N 36°20' E 035°14'0 0.0
2017-Jul-03 19:00N 36°20' E 035°14'0 0.0
2017-Jul-03 18:30N 36°20' E 035°14'0 0.0
2017-Jul-03 17:15N 36°20' E 035°14'0 0.0
2017-Jul-03 16:51N 36°20' E 035°14'0 0.0
2017-Jul-03 16:27N 36°20' E 035°14'0 0.0
2017-Jul-03 16:00N 36°20' E 035°14'0 0.0
2017-Jul-03 15:30N 36°20' E 035°14'0 0.0
2017-Jul-03 15:00N 36°20' E 035°14'0 0.0
2017-Jul-03 14:00N 36°20' E 035°14'0 0.0
2017-Jul-03 13:27N 36°20' E 035°14'0 0.0
2017-Jul-03 12:57N 36°20' E 035°14'0 0.0
2017-Jul-03 12:03N 36°20' E 035°14'0 0.1
2017-Jul-03 11:33N 36°20' E 035°14'0 0.0
2017-Jul-03 11:30N 36°20' E 035°14'0 0.0
2017-Jul-03 06:51N 36°20' E 035°14'0 0.0
2017-Jul-03 06:30N 36°20' E 035°14'0 0.0
2017-Jul-03 06:00N 36°20' E 035°14'0 0.2
2017-Jul-03 05:27N 36°20' E 035°14'0 0.0
2017-Jul-02 23:24N 36°20' E 035°14'0 0.0
2017-Jul-02 21:27N 36°20' E 035°14'0 0.0
2017-Jul-02 18:57N 36°20' E 035°14'0 0.0
2017-Jul-02 18:30N 36°20' E 035°14'0 0.0
2017-Jul-02 18:00N 36°20' E 035°14'0 0.0
2017-Jul-02 16:48N 36°20' E 035°14'0 0.0
2017-Jul-02 16:30N 36°20' E 035°14'0 0.0
2017-Jul-02 15:51N 36°20' E 035°14'0 0.0
2017-Jul-02 13:18N 36°20' E 035°14'0 0.0
2017-Jul-02 09:45N 36°20' E 035°14'0 0.0
2017-Jul-02 09:30N 36°20' E 035°14'0 0.0
2017-Jul-02 08:51N 36°20' E 035°14'0 0.0
2017-Jul-02 08:30N 36°20' E 035°14'0 0.0
2017-Jul-02 06:42N 36°20' E 035°14'0 0.0
2017-Jul-01 22:48N 36°20' E 035°14'0 0.1
2017-Jul-01 22:24N 36°20' E 035°14'0 0.0
2017-Jul-01 21:51N 36°20' E 035°14'0 0.0
2017-Jul-01 21:30N 36°20' E 035°14'0 0.0
2017-Jul-01 21:00N 36°20' E 035°14'0 0.0
2017-Jul-01 20:30N 36°20' E 035°14'0 0.0
2017-Jul-01 18:00N 36°20' E 035°14'0 0.1
2017-Jul-01 14:54N 36°20' E 035°15'0 0.1
2017-Jul-01 13:03N 36°20' E 035°14'0 0.1
2017-Jul-01 12:54N 36°20' E 035°14'0 0.0
2017-Jul-01 12:27N 36°20' E 035°14'0 0.0
2017-Jul-01 07:54N 36°20' E 035°14'0 0.0
2017-Jul-01 07:30N 36°20' E 035°14'0 0.0
2017-Jul-01 07:00N 36°20' E 035°14'  

Dump ship's entire track history